Main page
METAR-TAF:

METAR-TAF

Airports :

Brighton City Airport (Shoreham Airport)

Brighton, England

latitude: 50-50N, longitude: 000-17W, elevation: 2 m

Current weather observation

The report was made 4 hours and 1 minutes ago, at 17:20 UTC
Wind 34 kt from the South/Southwest
Temperature 19°C
Humidity 88%
Pressure 1008 hPa
Visibility: 8000 m
Broken clouds at a height of 2700 ft
light rain

METAR: EGKA 201720Z 21034KT 8000 -RA BKN027 19/17 Q1008

Time: 22:21 (21:21 UTC)

Forecast

The report was made 3 hours and 51 minutes ago, at 17:30 UTC
Forecast valid from 20 at 17 UTC to 20 at 19 UTC
Wind 20 kt from the Southwest with gusts up to 30 kt
Visibility 10 km or more
Scattered clouds at a height of 2000 ft
Probability 30% :
Temporary
from 20 at 17 UTC to 20 at 19 UTC
Wind 25 kt from the Southwest with gusts up to 40 kt
Visibility: 8000 m
light rain

TAF: EGKA 201730Z 2017/2019 22020G30KT 9999 SCT020 PROB30 TEMPO 2017/2019 22025G40KT 8000 -RA

Weather observations and forecasts of more than 4000 airports (METAR and TAF reports).

The available stations are represented by yellow and red dots on the map.

Hover mouse over dot to see the name of the station.

Then click to see weather observations and forecasts.

To change the map : click on the green buttons with a black cross to zoom in, on the green button with a dash to zoom out, or on the green arrows for adjacent maps.


METAR-TAF: